Time;durP1;ratioP1;P1;durP2;ratioP2;P2;SDS_P1;SDS_P2;PMS_P1;PMS_P2;Temp;Humidity;BMP_temperature;BMP_pressure;BME280_temperature;BME280_humidity;BME280_pressure;Samples;Min_cycle;Max_cycle;Signal;HPM_P1;HPM_P2
2021/11/01 00:06:13;;;;;;;1.63;0.52;;;8.60;99.90;;;;;;4974793;28;20027;-95
2021/11/01 00:11:23;;;;;;;4.05;1.38;;;8.60;99.90;;;;;;5059081;23;20063;-93
2021/11/01 00:13:50;;;;;;;2.50;1.40;;;8.60;99.90;;;;;;5040374;23;20030;-95
2021/11/01 00:18:54;;;;;;;6.80;1.42;;;8.60;99.90;;;;;;5608683;23;20076;-94
2021/11/01 00:21:59;;;;;;;3.78;0.93;;;8.60;99.90;;;;;;5021109;28;20056;-94
2021/11/01 00:36:07;;;;;;;3.20;0.70;;;8.50;99.90;;;;;;5795986;23;20049;-95
2021/11/01 00:47:11;;;;;;;;;;;8.60;99.90;;;;;;5054363;23;20059;-95
2021/11/01 00:49:39;;;;;;;3.30;0.88;;;8.60;99.90;;;;;;4970360;28;19934;-95
2021/11/01 00:52:05;;;;;;;9.00;1.88;;;8.60;99.90;;;;;;4975093;28;20060;-93
2021/11/01 00:54:31;;;;;;;4.50;0.90;;;8.60;99.90;;;;;;4966557;28;20031;-93
2021/11/01 00:56:56;;;;;;;5.22;1.20;;;8.50;99.90;;;;;;4968587;28;20381;-95
2021/11/01 00:59:22;;;;;;;4.85;0.85;;;8.50;99.90;;;;;;4971811;28;20026;-95
2021/11/01 01:01:49;;;;;;;6.97;1.00;;;8.50;99.90;;;;;;4972476;28;20122;-94
2021/11/01 01:04:16;;;;;;;2.85;0.75;;;8.50;99.90;;;;;;4966410;28;20027;-94
2021/11/01 01:06:42;;;;;;;2.78;1.17;;;8.50;99.90;;;;;;4964090;28;20062;-94
2021/11/01 01:09:08;;;;;;;5.85;0.80;;;8.50;99.90;;;;;;4967402;28;20027;-94
2021/11/01 01:11:51;;;;;;;4.45;1.00;;;8.50;99.90;;;;;;4969571;28;20011;-93
2021/11/01 01:14:25;;;;;;;5.40;1.13;;;8.40;99.90;;;;;;4976188;28;20038;-94
2021/11/01 01:16:54;;;;;;;2.97;0.60;;;8.40;99.90;;;;;;4989117;28;20149;-95
2021/11/01 01:19:23;;;;;;;5.40;0.88;;;8.30;99.90;;;;;;4965612;28;20034;-94
2021/11/01 01:24:35;;;;;;;5.70;0.90;;;8.30;99.90;;;;;;4990007;28;20033;-94
2021/11/01 01:27:00;;;;;;;3.80;0.70;;;8.20;99.90;;;;;;4973574;28;20058;-95
2021/11/01 01:29:26;;;;;;;6.45;1.05;;;8.20;99.90;;;;;;4974034;28;20033;-94
2021/11/01 01:31:53;;;;;;;4.03;0.65;;;8.20;99.90;;;;;;4971015;28;20477;-94
2021/11/01 01:34:23;;;;;;;6.53;1.95;;;8.20;99.90;;;;;;4966543;28;20023;-94
2021/11/01 01:37:08;;;;;;;7.20;0.77;;;8.20;99.90;;;;;;4971173;28;20042;-95
2021/11/01 02:06:09;;;;;;;4.38;0.70;;;8.30;99.90;;;;;;3796191;22;20313;-92
2021/11/01 02:09:03;;;;;;;1.92;0.50;;;8.30;99.90;;;;;;5013900;28;20050;-94
2021/11/01 02:11:40;;;;;;;2.80;0.45;;;8.30;99.90;;;;;;5011456;28;20036;-94
2021/11/01 02:14:14;;;;;;;2.20;0.63;;;8.30;99.90;;;;;;5007439;28;20021;-95
2021/11/01 02:19:18;;;;;;;2.55;0.43;;;8.30;99.90;;;;;;5377715;22;20054;-94
2021/11/01 02:21:54;;;;;;;2.53;1.30;;;8.30;99.90;;;;;;5018751;28;20052;-94
2021/11/01 02:44:48;;;;;;;1.08;0.40;;;8.30;99.90;;;;;;1139601;23;20429;-93
2021/11/01 03:03:21;;;;;;;;;;;8.40;99.90;;;;;;5035434;28;20065;-93
2021/11/01 03:06:03;;;;;;;1.80;0.47;;;8.40;99.90;;;;;;5039947;28;19914;-95
2021/11/01 03:08:50;;;;;;;4.13;0.68;;;8.40;99.90;;;;;;5423990;23;20202;-94
2021/11/01 03:20:17;;;;;;;3.17;0.47;;;8.40;99.90;;;;;;5013393;28;20042;-95
2021/11/01 03:28:09;;;;;;;2.20;0.55;;;8.40;99.90;;;;;;5138597;23;20061;-94
2021/11/01 03:36:11;;;;;;;4.57;0.75;;;8.50;99.90;;;;;;5006445;28;20050;-95
2021/11/01 03:44:19;;;;;;;5.07;0.77;;;8.50;99.90;;;;;;5339115;22;20503;-95
2021/11/01 03:49:26;;;;;;;2.50;0.65;;;8.50;99.90;;;;;;5618035;22;20061;-94
2021/11/01 03:52:06;;;;;;;4.60;0.93;;;8.50;99.90;;;;;;5011834;28;20037;-94
2021/11/01 03:54:37;;;;;;;;;;;8.50;99.90;;;;;;5016513;28;20045;-94
2021/11/01 03:57:04;;;;;;;;;;;8.50;99.90;;;;;;5011342;28;20343;-94
2021/11/01 03:59:34;;;;;;;1.55;0.70;;;8.50;99.90;;;;;;5019322;28;19933;-93
2021/11/01 04:01:59;;;;;;;4.25;0.68;;;8.50;99.90;;;;;;5020040;28;20033;-93
2021/11/01 04:04:25;;;;;;;5.93;0.60;;;8.50;99.90;;;;;;5015293;28;20020;-94
2021/11/01 04:06:51;;;;;;;5.43;0.88;;;8.50;99.90;;;;;;5015426;28;20072;-95
2021/11/01 04:09:17;;;;;;;5.97;0.95;;;8.50;99.90;;;;;;5017602;28;20492;-93
2021/11/01 04:11:44;;;;;;;3.88;0.57;;;8.50;99.90;;;;;;5013077;28;20045;-95
2021/11/01 04:17:00;;;;;;;5.78;0.98;;;8.50;99.90;;;;;;5242890;22;20037;-93
2021/11/01 04:21:54;;;;;;;9.13;0.90;;;8.50;99.90;;;;;;5039178;28;20065;-95
2021/11/01 04:29:59;;;;;;;6.25;0.80;;;8.50;99.90;;;;;;5351303;22;20034;-93
2021/11/01 04:32:39;;;;;;;3.63;0.55;;;8.50;99.90;;;;;;5033337;28;20665;-94
2021/11/01 04:35:13;;;;;;;2.47;0.80;;;8.50;99.90;;;;;;5030566;28;20089;-95
2021/11/01 04:37:41;;;;;;;4.68;0.80;;;8.50;99.90;;;;;;5017371;28;20033;-94
2021/11/01 04:53:55;;;;;;;4.68;0.63;;;8.50;99.90;;;;;;5033013;28;20040;-95
2021/11/01 04:56:25;;;;;;;1.90;0.93;;;8.50;99.90;;;;;;5012583;28;20040;-93
2021/11/01 04:59:02;;;;;;;5.10;0.60;;;8.50;99.90;;;;;;5069933;23;20549;-95
2021/11/01 05:07:03;;;;;;;3.40;0.70;;;8.50;99.90;;;;;;5369700;22;20173;-96
2021/11/01 05:15:10;;;;;;;6.78;0.60;;;8.40;99.90;;;;;;5031853;28;20030;-95
2021/11/01 05:23:18;;;;;;;3.40;0.68;;;8.40;99.90;;;;;;5017515;28;20065;-94
2021/11/01 05:25:55;;;;;;;5.10;0.68;;;8.50;99.90;;;;;;5010086;28;20018;-94
2021/11/01 05:28:28;;;;;;;4.82;0.88;;;8.50;99.90;;;;;;5013066;28;20026;-93
2021/11/01 05:31:05;;;;;;;5.53;0.93;;;8.50;99.90;;;;;;5030748;28;20029;-93
2021/11/01 05:36:27;;;;;;;4.45;0.70;;;8.50;99.90;;;;;;5007663;28;20061;-95
2021/11/01 05:38:55;;;;;;;2.95;0.63;;;8.50;99.90;;;;;;5011599;28;20041;-95
2021/11/01 05:41:24;;;;;;;9.15;1.58;;;8.40;99.90;;;;;;5003675;28;20061;-94
2021/11/01 05:43:50;;;;;;;9.05;0.65;;;8.50;99.90;;;;;;4986004;28;20469;-94
2021/11/01 05:46:16;;;;;;;3.88;0.70;;;8.50;99.90;;;;;;4981261;28;20033;-93
2021/11/01 05:48:51;;;;;;;8.48;1.00;;;8.50;99.90;;;;;;4981265;28;20037;-94
2021/11/01 05:51:20;;;;;;;4.75;0.60;;;8.50;99.90;;;;;;4980821;28;20089;-93
2021/11/01 05:53:50;;;;;;;6.10;1.00;;;8.50;99.90;;;;;;4985096;28;20030;-93
2021/11/01 06:07:37;;;;;;;6.35;1.10;;;8.40;99.90;;;;;;5003671;28;20037;-95
2021/11/01 06:10:08;;;;;;;3.05;0.65;;;8.50;99.90;;;;;;4987454;28;20038;-94
2021/11/01 06:15:27;;;;;;;4.82;0.95;;;8.50;99.90;;;;;;4964443;29;20079;-94
2021/11/01 06:17:55;;;;;;;5.43;0.90;;;8.50;99.90;;;;;;4943690;29;20137;-93
2021/11/01 06:20:21;;;;;;;7.35;1.10;;;8.50;99.90;;;;;;4942356;29;20423;-94
2021/11/01 06:22:47;;;;;;;13.98;1.52;;;8.50;99.90;;;;;;4942170;29;20039;-95
2021/11/01 06:25:16;;;;;;;10.60;2.28;;;8.50;99.90;;;;;;4941529;29;20034;-94
2021/11/01 06:27:42;;;;;;;8.77;1.55;;;8.40;99.90;;;;;;4940574;29;20102;-92
2021/11/01 06:41:28;;;;;;;2.95;0.68;;;8.40;99.90;;;;;;4942526;29;20095;-95
2021/11/01 06:57:20;;;;;;;8.32;1.02;;;8.40;99.90;;;;;;4996684;28;20019;-94
2021/11/01 08:43:04;;;;;;;9.10;1.08;;;8.00;99.90;;;;;;1006308;23;20319;-92
2021/11/01 09:43:41;;;;;;;3.10;0.70;;;8.00;99.90;;;;;;5046733;28;20041;-95
2021/11/01 09:46:20;;;;;;;2.97;0.45;;;8.00;99.90;;;;;;5025695;28;20026;-94
2021/11/01 09:49:32;;;;;;;2.88;0.43;;;7.90;99.90;;;;;;5050216;28;20032;-96
2021/11/01 09:51:58;;;;;;;2.47;0.40;;;8.00;99.90;;;;;;5045140;28;20494;-94
2021/11/01 09:54:29;;;;;;;1.60;0.40;;;8.00;99.90;;;;;;5033365;28;20026;-95
2021/11/01 09:57:06;;;;;;;2.67;0.50;;;8.00;99.90;;;;;;5029313;28;20032;-94
2021/11/01 09:59:46;;;;;;;0.20;0.13;;;8.00;99.90;;;;;;5007837;28;20099;-95
2021/11/01 11:12:34;;;;;;;0.47;0.20;;;7.60;99.90;;;;;;5068089;28;20039;-93
2021/11/01 11:15:09;;;;;;;2.33;0.50;;;7.60;99.90;;;;;;5052445;28;20018;-94
2021/11/01 11:17:49;;;;;;;1.33;0.30;;;7.60;99.90;;;;;;5049680;28;20021;-95
2021/11/01 11:43:28;;;;;;;1.50;0.50;;;7.60;99.90;;;;;;5039735;28;20056;-94
2021/11/01 11:49:03;;;;;;;1.75;0.38;;;7.70;99.90;;;;;;5040362;28;20572;-94
2021/11/01 11:51:30;;;;;;;1.00;0.47;;;7.70;99.90;;;;;;4994908;28;20038;-94
2021/11/01 11:54:06;;;;;;;1.58;0.68;;;7.60;99.90;;;;;;4996968;28;20023;-93
2021/11/01 11:56:38;;;;;;;1.25;0.73;;;7.60;99.90;;;;;;4973099;28;20031;-94
2021/11/01 11:59:32;;;;;;;2.55;0.80;;;7.70;99.90;;;;;;4988127;28;20030;-94
2021/11/01 12:02:03;;;;;;;1.98;1.38;;;7.70;99.90;;;;;;4998606;28;20112;-93
2021/11/01 12:04:34;;;;;;;16.38;5.03;;;7.60;99.90;;;;;;5000802;28;20026;-93
2021/11/01 12:07:12;;;;;;;5.57;1.77;;;7.60;99.90;;;;;;4996757;28;20026;-94
2021/11/01 12:09:57;;;;;;;12.52;4.07;;;7.60;99.90;;;;;;4975276;28;20034;-93
2021/11/01 12:17:04;;;;;;;10.80;3.63;;;7.60;99.90;;;;;;4979064;28;20038;-95
2021/11/01 12:18:28;;;;;;;23.25;7.10;;;7.70;99.90;;;;;;4998713;28;20023;-94
2021/11/01 12:21:01;;;;;;;2.90;1.42;;;7.70;99.90;;;;;;5010108;28;20042;-95
2021/11/01 12:23:40;;;;;;;3.70;1.27;;;7.70;99.90;;;;;;5006449;28;20045;-95
2021/11/01 12:26:10;;;;;;;18.13;5.50;;;7.70;99.90;;;;;;5004788;28;20030;-96
2021/11/01 12:28:42;;;;;;;4.97;1.10;;;7.70;99.90;;;;;;5004462;28;20082;-94
2021/11/01 12:31:13;;;;;;;5.07;1.88;;;7.70;99.90;;;;;;5006316;28;20121;-95
2021/11/01 12:33:46;;;;;;;1.80;1.10;;;7.70;99.90;;;;;;5005660;28;20026;-94
2021/11/01 12:36:19;;;;;;;4.22;1.25;;;7.70;99.90;;;;;;5007620;28;20034;-95
2021/11/01 12:39:05;;;;;;;3.50;0.70;;;7.70;99.90;;;;;;5004575;28;20032;-96
2021/11/01 12:57:31;;;;;;;5.00;1.52;;;7.90;99.90;;;;;;5046714;28;20022;-95
2021/11/01 12:59:58;;;;;;;3.13;1.05;;;7.90;99.90;;;;;;5022443;28;20164;-94
2021/11/01 13:02:26;;;;;;;4.35;1.13;;;7.90;99.90;;;;;;5024513;28;20064;-94
2021/11/01 13:04:53;;;;;;;5.32;1.60;;;8.00;99.90;;;;;;5026945;28;20097;-95
2021/11/01 13:07:48;;;;;;;8.20;1.52;;;8.00;99.90;;;;;;5026337;28;20071;-94
2021/11/01 13:10:35;;;;;;;7.65;2.50;;;8.10;99.90;;;;;;5020920;28;20044;-93
2021/11/01 13:19:22;;;;;;;5.13;0.88;;;8.20;99.90;;;;;;4988018;28;20034;-95
2021/11/01 13:22:14;;;;;;;3.45;0.70;;;8.30;99.90;;;;;;4968733;28;20051;-94
2021/11/01 13:28:43;;;;;;;4.35;0.93;;;8.40;99.90;;;;;;5031732;28;20060;-95
2021/11/01 13:37:25;;;;;;;5.43;1.40;;;8.60;99.90;;;;;;5031459;28;20045;-94
2021/11/01 13:40:13;;;;;;;6.68;1.58;;;8.60;99.90;;;;;;5024586;28;20038;-94
2021/11/01 13:42:46;;;;;;;6.88;1.00;;;8.60;99.90;;;;;;5008625;28;20050;-92
2021/11/01 13:45:13;;;;;;;4.22;1.55;;;8.60;99.90;;;;;;5007827;28;20391;-95
2021/11/01 13:47:53;;;;;;;4.78;1.42;;;8.50;99.90;;;;;;5022779;28;20042;-94
2021/11/01 13:50:28;;;;;;;7.55;1.50;;;8.50;99.90;;;;;;5024476;28;20034;-95
2021/11/01 13:53:24;;;;;;;8.07;1.60;;;8.50;99.90;;;;;;5021923;28;20025;-96
2021/11/01 13:56:04;;;;;;;4.63;1.40;;;8.50;99.90;;;;;;5011523;28;20041;-95
2021/11/01 13:58:36;;;;;;;;;;;8.50;99.90;;;;;;5026235;28;20030;-95
2021/11/01 14:11:09;;;;;;;9.20;2.17;;;8.60;99.90;;;;;;4981119;28;20045;-96
2021/11/01 14:14:07;;;;;;;6.93;2.40;;;8.60;99.90;;;;;;4971138;28;20050;-95
2021/11/01 14:19:57;;;;;;;;;;;;;;;;;;;;;
2021/11/01 15:02:14;;;;;;;12.02;2.20;;;9.10;99.90;;;;;;5383686;22;20042;-95
2021/11/01 15:10:44;;;;;;;11.05;2.08;;;9.30;99.90;;;;;;5012428;28;20490;-96
2021/11/01 15:29:39;;;;;;;13.25;2.65;;;9.50;99.90;;;;;;5015698;28;20037;-95
2021/11/01 15:32:27;;;;;;;17.38;2.53;;;9.50;99.90;;;;;;5013078;28;20371;-94
2021/11/01 15:37:26;;;;;;;8.15;1.98;;;9.50;99.90;;;;;;5018013;28;20026;-95
2021/11/01 16:18:42;;;;;;;11.65;1.90;;;9.00;99.90;;;;;;4996223;28;20041;-94
2021/11/01 16:21:09;;;;;;;10.25;2.00;;;8.90;99.90;;;;;;4997172;28;20037;-93
2021/11/01 16:23:37;;;;;;;14.80;1.85;;;8.90;99.90;;;;;;4997269;28;20010;-93
2021/11/01 16:26:29;;;;;;;8.93;1.85;;;8.90;99.90;;;;;;4997265;28;20056;-93
2021/11/01 16:29:04;;;;;;;4.80;1.33;;;8.80;99.90;;;;;;4974180;28;20077;-95
2021/11/01 16:34:21;;;;;;;10.07;1.60;;;8.80;99.90;;;;;;4976824;28;20033;-92
2021/11/01 16:39:15;;;;;;;9.32;1.55;;;8.80;99.90;;;;;;4977607;28;20027;-93
2021/11/01 16:41:42;;;;;;;7.25;1.90;;;8.70;99.90;;;;;;4996226;28;20042;-94
2021/11/01 16:44:31;;;;;;;7.75;1.60;;;8.70;99.90;;;;;;4997043;28;20537;-93
2021/11/01 16:46:55;;;;;;;11.80;2.10;;;8.70;99.90;;;;;;4984149;28;20035;-93
2021/11/01 16:49:22;;;;;;;7.15;1.60;;;8.60;99.90;;;;;;4996829;28;20050;-93
2021/11/01 16:51:49;;;;;;;7.43;1.73;;;8.60;99.90;;;;;;4996228;28;20054;-93
2021/11/01 16:54:22;;;;;;;11.35;1.52;;;8.50;99.90;;;;;;4979292;28;20085;-94
2021/11/01 16:57:10;;;;;;;8.88;1.85;;;8.50;99.90;;;;;;4994645;28;20034;-93
2021/11/01 17:05:05;;;;;;;7.03;1.77;;;8.50;99.90;;;;;;4995768;28;20030;-93
2021/11/01 17:25:05;;;;;;;11.40;1.70;;;8.30;99.90;;;;;;4928553;29;20128;-93
2021/11/01 17:35:32;;;;;;;8.35;1.50;;;8.20;99.90;;;;;;4933239;29;20039;-93
2021/11/01 17:38:39;;;;;;;8.90;1.60;;;8.20;99.90;;;;;;4938870;28;20512;-94
2021/11/01 18:37:26;;;;;;;9.20;1.98;;;8.10;99.90;;;;;;4981225;28;20046;-94
2021/11/01 18:42:29;;;;;;;4.47;2.03;;;8.10;99.90;;;;;;4983159;28;20154;-94
2021/11/01 18:45:07;;;;;;;9.68;3.30;;;8.00;99.90;;;;;;4976162;28;20023;-94
2021/11/01 18:53:33;;;;;;;10.23;3.00;;;8.10;99.90;;;;;;4918659;29;20062;-93
2021/11/01 18:56:02;;;;;;;10.55;2.10;;;8.20;99.90;;;;;;4906800;29;20020;-93
2021/11/01 18:58:29;;;;;;;9.32;2.80;;;8.30;99.90;;;;;;4925188;29;20434;-93
2021/11/01 19:00:58;;;;;;;11.25;2.47;;;8.30;99.90;;;;;;4915532;29;20053;-93
2021/11/01 19:03:26;;;;;;;8.65;2.22;;;8.30;99.90;;;;;;4920275;29;20031;-92
2021/11/01 19:06:09;;;;;;;9.18;2.83;;;8.40;99.90;;;;;;4931807;29;20035;-93
2021/11/01 19:08:57;;;;;;;11.57;3.00;;;8.50;99.90;;;;;;4938379;29;20118;-93
2021/11/01 20:04:21;;;;;;;4.90;1.67;;;8.00;99.90;;;;;;4987488;28;20152;-93
2021/11/01 20:15:00;;;;;;;1.85;1.17;;;7.70;99.90;;;;;;4988057;28;20033;-94
2021/11/01 21:24:36;;;;;;;2.55;0.93;;;7.10;99.90;;;;;;4922114;29;20450;-94
2021/11/01 21:27:05;;;;;;;2.58;1.50;;;7.20;99.90;;;;;;4915550;29;20059;-93
2021/11/01 21:29:33;;;;;;;3.22;1.35;;;7.20;99.90;;;;;;4903459;29;20028;-95
2021/11/01 21:32:00;;;;;;;3.45;1.40;;;7.20;99.90;;;;;;4903767;28;20512;-94
2021/11/01 21:34:43;;;;;;;2.90;1.65;;;7.20;99.90;;;;;;4975383;28;20022;-93
2021/11/01 21:37:09;;;;;;;6.78;2.40;;;7.20;99.90;;;;;;4990081;28;20038;-94
2021/11/01 21:39:37;;;;;;;1.48;1.13;;;7.20;99.90;;;;;;4979116;28;20594;-94
2021/11/01 21:42:03;;;;;;;5.82;2.30;;;7.20;99.90;;;;;;4969183;28;20054;-96
2021/11/01 21:44:36;;;;;;;6.88;2.38;;;7.20;99.90;;;;;;4972314;28;20041;-94
2021/11/01 21:47:03;;;;;;;4.70;2.35;;;7.20;99.90;;;;;;4988256;28;20475;-93
2021/11/01 21:49:28;;;;;;;6.50;2.42;;;7.20;99.90;;;;;;4973425;28;20030;-93
2021/11/01 21:51:56;;;;;;;4.70;2.40;;;7.20;99.90;;;;;;4957948;28;20038;-94
2021/11/01 21:54:35;;;;;;;3.92;2.30;;;7.20;99.90;;;;;;4963240;28;20030;-92
2021/11/01 21:57:08;;;;;;;5.05;2.70;;;7.30;99.90;;;;;;4974495;28;20033;-93
2021/11/01 22:21:25;;;;;;;11.20;4.30;;;7.20;99.90;;;;;;4990801;28;20096;-95
2021/11/01 22:24:28;;;;;;;5.82;3.38;;;7.20;99.90;;;;;;4971866;28;20908;-95
2021/11/01 22:40:48;;;;;;;16.90;9.43;;;7.20;99.90;;;;;;4990230;28;20113;-95
2021/11/01 22:46:06;;;;;;;15.35;7.38;;;7.20;99.90;;;;;;4989960;28;20036;-95
2021/11/01 22:56:56;;;;;;;8.57;5.93;;;7.10;99.90;;;;;;4990319;28;20042;-95
2021/11/01 22:59:21;;;;;;;10.75;5.40;;;7.10;99.90;;;;;;4988055;28;20101;-94
2021/11/01 23:01:48;;;;;;;11.15;6.43;;;7.10;99.90;;;;;;4986499;28;20439;-93
2021/11/01 23:34:06;;;;;;;6.20;3.75;;;7.00;99.90;;;;;;4988118;28;20053;-93
2021/11/01 23:36:33;;;;;;;7.20;3.63;;;7.00;99.90;;;;;;4967311;28;20391;-93
2021/11/01 23:38:59;;;;;;;5.43;3.72;;;7.00;99.90;;;;;;4975147;28;20108;-95
2021/11/01 23:41:26;;;;;;;5.80;3.40;;;7.00;99.90;;;;;;4973307;28;20046;-96
2021/11/01 23:43:52;;;;;;;5.22;2.97;;;7.00;99.90;;;;;;4985486;28;20113;-94
2021/11/01 23:46:18;;;;;;;7.07;2.90;;;7.00;99.90;;;;;;4969305;28;20399;-94
2021/11/01 23:48:44;;;;;;;4.40;2.60;;;7.00;99.90;;;;;;4987264;28;20027;-94
2021/11/01 23:51:12;;;;;;;4.25;2.30;;;7.00;99.90;;;;;;4968302;28;20158;-95
2021/11/01 23:53:48;;;;;;;5.20;2.13;;;7.00;99.90;;;;;;4987426;28;20022;-93
2021/11/01 23:56:15;;;;;;;4.43;2.90;;;7.00;99.90;;;;;;4975521;28;20101;-94
2021/11/01 23:58:43;;;;;;;2.13;1.80;;;6.90;99.90;;;;;;4975930;28;20045;-94
